Time;durP1;ratioP1;P1;durP2;ratioP2;P2;SDS_P1;SDS_P2;PMS_P1;PMS_P2;Temp;Humidity;BMP_temperature;BMP_pressure;BME280_temperature;BME280_humidity;BME280_pressure;Samples;Min_cycle;Max_cycle;Signal;HPM_P1;HPM_P2
2022/05/07 00:02:03;;;;;;;;;;;;;;;;;;5157250;27;28566;-92
2022/05/07 00:04:28;;;;;;;;;;;;;;;;;;5157545;27;28430;-92
2022/05/07 00:06:53;;;;;;;;;;;;;;;;;;5138623;27;28391;-90
2022/05/07 00:09:18;;;;;;;;;;;;;;;;;;5138616;27;30103;-92
2022/05/07 00:11:43;;;;;;;;;;;;;;;;;;5157414;27;28279;-92
2022/05/07 00:14:08;;;;;;;;;;;;;;;;;;5156944;27;27743;-90
2022/05/07 00:19:17;;;;;;;;;;;;;;;;;;5159431;27;28369;-89
2022/05/07 00:21:42;;;;;;;;;;;;;;;;;;5160711;27;27763;-89
2022/05/07 00:24:08;;;;;;;;;;;;;;;;;;5160619;27;28455;-89
2022/05/07 00:26:33;;;;;;;;;;;;;;;;;;5160834;27;28469;-90
2022/05/07 00:28:58;;;;;;;;;;;;;;;;;;5141634;27;30731;-90
2022/05/07 00:31:23;;;;;;;;;;;;;;;;;;5160809;27;28315;-90
2022/05/07 00:33:48;;;;;;;;;;;;;;;;;;5160988;27;28503;-93
2022/05/07 00:36:13;;;;;;;;;;;;;;;;;;5161046;27;28387;-90
2022/05/07 00:38:38;;;;;;;;;;;;;;;;;;5141893;27;29644;-91
2022/05/07 00:41:03;;;;;;;;;;;;;;;;;;5142034;27;28462;-90
2022/05/07 00:43:28;;;;;;;;;;;;;;;;;;5160479;27;28391;-91
2022/05/07 00:45:54;;;;;;;;;;;;;;;;;;5160663;27;28334;-92
2022/05/07 00:48:19;;;;;;;;;;;;;;;;;;5141470;27;28549;-90
2022/05/07 00:53:27;;;;;;;;;;;;;;;;;;5160898;27;28520;-90
2022/05/07 00:55:53;;;;;;;;;;;;;;;;;;5142592;27;28562;-91
2022/05/07 00:58:18;;;;;;;;;;;;;;;;;;5142047;27;28786;-92
2022/05/07 01:00:46;;;;;;;;;;;;;;;;;;5161496;27;28387;-93
2022/05/07 01:03:11;;;;;;;;;;;;;;;;;;5141961;27;27813;-92
2022/05/07 01:05:36;;;;;;;;;;;;;;;;;;5141483;27;28444;-90
2022/05/07 01:08:01;;;;;;;;;;;;;;;;;;5160371;27;28444;-90
2022/05/07 01:10:27;;;;;;;;;;;;;;;;;;5141426;27;29011;-90
2022/05/07 01:12:52;;;;;;;;;;;;;;;;;;5141505;27;28568;-92
2022/05/07 01:15:17;;;;;;;;;;;;;;;;;;5141700;27;28323;-91
2022/05/07 01:17:42;;;;;;;;;;;;;;;;;;5160558;27;28422;-91
2022/05/07 01:20:09;;;;;;;;;;;;;;;;;;5160226;27;28372;-90
2022/05/07 01:22:34;;;;;;;;;;;;;;;;;;5159694;27;28405;-88
2022/05/07 01:24:59;;;;;;;;;;;;;;;;;;5159926;27;28487;-91
2022/05/07 01:27:25;;;;;;;;;;;;;;;;;;5141074;27;28272;-89
2022/05/07 01:29:50;;;;;;;;;;;;;;;;;;5159624;27;28333;-90
2022/05/07 01:32:15;;;;;;;;;;;;;;;;;;5160083;27;28301;-89
2022/05/07 01:34:40;;;;;;;;;;;;;;;;;;5159984;27;28259;-89
2022/05/07 01:37:05;;;;;;;;;;;;;;;;;;5159526;27;29010;-89
2022/05/07 01:39:30;;;;;;;;;;;;;;;;;;5159514;27;27869;-90
2022/05/07 01:41:55;;;;;;;;;;;;;;;;;;5159587;27;28233;-90
2022/05/07 01:44:20;;;;;;;;;;;;;;;;;;5159835;27;28486;-90
2022/05/07 01:49:43;;;;;;;;;;;;;;;;;;5115270;27;28437;-90
2022/05/07 01:52:09;;;;;;;;;;;;;;;;;;5115669;27;28438;-88
2022/05/07 01:54:34;;;;;;;;;;;;;;;;;;5115827;27;28477;-89
2022/05/07 01:56:59;;;;;;;;;;;;;;;;;;5115522;27;29178;-89
2022/05/07 01:59:24;;;;;;;;;;;;;;;;;;5115447;27;28595;-91
2022/05/07 02:01:49;;;;;;;;;;;;;;;;;;5098109;27;28548;-90
2022/05/07 02:04:14;;;;;;;;;;;;;;;;;;5115646;27;28848;-90
2022/05/07 02:06:39;;;;;;;;;;;;;;;;;;5115408;27;28619;-90
2022/05/07 02:09:04;;;;;;;;;;;;;;;;;;5115371;27;29001;-91
2022/05/07 02:11:29;;;;;;;;;;;;;;;;;;5098555;27;28414;-91
2022/05/07 02:13:54;;;;;;;;;;;;;;;;;;5115120;27;28474;-91
2022/05/07 02:16:20;;;;;;;;;;;;;;;;;;5115453;27;28424;-90
2022/05/07 02:18:45;;;;;;;;;;;;;;;;;;5098151;27;28390;-90
2022/05/07 02:21:10;;;;;;;;;;;;;;;;;;5098037;27;28794;-91
2022/05/07 02:23:35;;;;;;;;;;;;;;;;;;5115363;27;28389;-90
2022/05/07 02:26:00;;;;;;;;;;;;;;;;;;5131068;27;30876;-91
2022/05/07 02:28:25;;;;;;;;;;;;;;;;;;5140036;27;28414;-90
2022/05/07 02:30:50;;;;;;;;;;;;;;;;;;5158838;27;28750;-90
2022/05/07 02:33:15;;;;;;;;;;;;;;;;;;5159140;27;28416;-90
2022/05/07 02:35:41;;;;;;;;;;;;;;;;;;5140138;27;29865;-91
2022/05/07 02:38:06;;;;;;;;;;;;;;;;;;5158433;27;28419;-91
2022/05/07 02:42:33;;;;;;;;;;;;;;;;;;5158578;27;28849;-91
2022/05/07 02:43:16;;;;;;;;;;;;;;;;;;5158516;27;28484;-91
2022/05/07 02:45:41;;;;;;;;;;;;;;;;;;5158444;27;28518;-91
2022/05/07 02:48:06;;;;;;;;;;;;;;;;;;5158733;27;28383;-91
2022/05/07 02:50:32;;;;;;;;;;;;;;;;;;5139963;27;28461;-91
2022/05/07 02:52:57;;;;;;;;;;;;;;;;;;5140469;27;28390;-92
2022/05/07 02:55:22;;;;;;;;;;;;;;;;;;5140236;27;28590;-91
2022/05/07 02:57:47;;;;;;;;;;;;;;;;;;5140280;27;28365;-92
2022/05/07 03:00:12;;;;;;;;;;;;;;;;;;5143820;27;28444;-92
2022/05/07 03:02:37;;;;;;;;;;;;;;;;;;5144964;27;28587;-92
2022/05/07 03:05:02;;;;;;;;;;;;;;;;;;5142990;27;29674;-93
2022/05/07 03:07:27;;;;;;;;;;;;;;;;;;5141590;27;28318;-91
2022/05/07 03:09:53;;;;;;;;;;;;;;;;;;5141716;27;28370;-92
2022/05/07 03:12:18;;;;;;;;;;;;;;;;;;5141646;27;27875;-93
2022/05/07 03:14:43;;;;;;;;;;;;;;;;;;5141983;27;31055;-93
2022/05/07 03:17:08;;;;;;;;;;;;;;;;;;5141761;27;29294;-94
2022/05/07 03:19:33;;;;;;;;;;;;;;;;;;5142066;27;28335;-93
2022/05/07 03:21:58;;;;;;;;;;;;;;;;;;5141749;27;28654;-93
2022/05/07 03:24:23;;;;;;;;;;;;;;;;;;5141819;27;31106;-93
2022/05/07 03:26:48;;;;;;;;;;;;;;;;;;5141625;27;28375;-92
2022/05/07 03:29:13;;;;;;;;;;;;;;;;;;5140594;27;27649;-93
2022/05/07 03:31:39;;;;;;;;;;;;;;;;;;5141868;27;28932;-92
2022/05/07 03:34:04;;;;;;;;;;;;;;;;;;5140861;27;29750;-93
2022/05/07 03:36:29;;;;;;;;;;;;;;;;;;5140684;27;28202;-93
2022/05/07 03:38:54;;;;;;;;;;;;;;;;;;5140299;27;28309;-91
2022/05/07 03:41:19;;;;;;;;;;;;;;;;;;5140689;27;28364;-93
2022/05/07 03:43:44;;;;;;;;;;;;;;;;;;5140306;27;30640;-94
2022/05/07 03:46:10;;;;;;;;;;;;;;;;;;5139633;27;29319;-93
2022/05/07 03:48:35;;;;;;;;;;;;;;;;;;5140818;27;28276;-93
2022/05/07 03:51:00;;;;;;;;;;;;;;;;;;5139131;27;27962;-91
2022/05/07 03:53:31;;;;;;;;;;;;;;;;;;5158715;27;29437;-90
2022/05/07 03:55:56;;;;;;;;;;;;;;;;;;5161239;27;28342;-86
2022/05/07 03:58:21;;;;;;;;;;;;;;;;;;5160953;27;28447;-86
2022/05/07 04:00:46;;;;;;;;;;;;;;;;;;5161295;27;28312;-87
2022/05/07 04:03:11;;;;;;;;;;;;;;;;;;5160525;27;28524;-87
2022/05/07 04:05:36;;;;;;;;;;;;;;;;;;5160923;27;28464;-87
2022/05/07 04:08:01;;;;;;;;;;;;;;;;;;5161420;27;28821;-86
2022/05/07 04:10:27;;;;;;;;;;;;;;;;;;5161247;27;28377;-87
2022/05/07 04:12:52;;;;;;;;;;;;;;;;;;5161115;27;28598;-86
2022/05/07 04:15:17;;;;;;;;;;;;;;;;;;5160469;27;28267;-87
2022/05/07 04:17:42;;;;;;;;;;;;;;;;;;5142004;27;28488;-90
2022/05/07 04:20:07;;;;;;;;;;;;;;;;;;5161260;27;28389;-89
2022/05/07 04:22:32;;;;;;;;;;;;;;;;;;5160514;27;28541;-88
2022/05/07 04:24:58;;;;;;;;;;;;;;;;;;5160886;27;28305;-89
2022/05/07 04:27:23;;;;;;;;;;;;;;;;;;5160697;27;28778;-88
2022/05/07 04:29:48;;;;;;;;;;;;;;;;;;5160827;27;28283;-87
2022/05/07 04:32:13;;;;;;;;;;;;;;;;;;5160472;27;28419;-88
2022/05/07 04:34:38;;;;;;;;;;;;;;;;;;5160621;27;28255;-88
2022/05/07 04:37:03;;;;;;;;;;;;;;;;;;5141812;27;28333;-88
2022/05/07 04:39:30;;;;;;;;;;;;;;;;;;5160458;27;28370;-89
2022/05/07 04:41:56;;;;;;;;;;;;;;;;;;5160411;27;29560;-88
2022/05/07 04:44:21;;;;;;;;;;;;;;;;;;5155707;27;28244;-87
2022/05/07 04:46:46;;;;;;;;;;;;;;;;;;5125546;27;28262;-87
2022/05/07 04:49:11;;;;;;;;;;;;;;;;;;5131008;27;28386;-87
2022/05/07 04:51:37;;;;;;;;;;;;;;;;;;5139177;27;28217;-87
2022/05/07 04:54:02;;;;;;;;;;;;;;;;;;5139346;27;28374;-87
2022/05/07 04:56:27;;;;;;;;;;;;;;;;;;5139153;27;28500;-88
2022/05/07 04:58:52;;;;;;;;;;;;;;;;;;5153387;27;28327;-87
2022/05/07 05:01:17;;;;;;;;;;;;;;;;;;5160064;27;28639;-87
2022/05/07 05:03:42;;;;;;;;;;;;;;;;;;5159497;27;28533;-87
2022/05/07 05:06:08;;;;;;;;;;;;;;;;;;5160360;27;28378;-87
2022/05/07 05:08:33;;;;;;;;;;;;;;;;;;5159925;27;28527;-86
2022/05/07 05:10:58;;;;;;;;;;;;;;;;;;5160081;27;28499;-87
2022/05/07 05:13:23;;;;;;;;;;;;;;;;;;5159979;27;28482;-87
2022/05/07 05:15:48;;;;;;;;;;;;;;;;;;5159641;27;28422;-87
2022/05/07 05:18:13;;;;;;;;;;;;;;;;;;5160231;27;28431;-87
2022/05/07 05:20:38;;;;;;;;;;;;;;;;;;5175872;27;29820;-87
2022/05/07 05:23:06;;;;;;;;;;;;;;;;;;5159491;27;28394;-87
2022/05/07 05:25:32;;;;;;;;;;;;;;;;;;5159836;27;28422;-87
2022/05/07 05:27:57;;;;;;;;;;;;;;;;;;5159672;27;28352;-87
2022/05/07 05:30:22;;;;;;;;;;;;;;;;;;5159744;27;29533;-87
2022/05/07 05:32:47;;;;;;;;;;;;;;;;;;5159167;27;28310;-87
2022/05/07 05:35:12;;;;;;;;;;;;;;;;;;5159767;27;28314;-87
2022/05/07 05:37:37;;;;;;;;;;;;;;;;;;5159928;27;28404;-88
2022/05/07 05:40:02;;;;;;;;;;;;;;;;;;5175452;27;29801;-87
2022/05/07 05:42:27;;;;;;;;;;;;;;;;;;5159617;27;28404;-87
2022/05/07 05:44:53;;;;;;;;;;;;;;;;;;5159381;27;28335;-86
2022/05/07 05:47:18;;;;;;;;;;;;;;;;;;5158714;27;28375;-87
2022/05/07 05:49:43;;;;;;;;;;;;;;;;;;5158912;27;28485;-86
2022/05/07 05:52:08;;;;;;;;;;;;;;;;;;5158474;27;28387;-87
2022/05/07 05:54:33;;;;;;;;;;;;;;;;;;5159146;27;28411;-86
2022/05/07 05:56:58;;;;;;;;;;;;;;;;;;5175286;27;28767;-87
2022/05/07 05:59:23;;;;;;;;;;;;;;;;;;5158672;27;28604;-87
2022/05/07 06:01:48;;;;;;;;;;;;;;;;;;5158687;27;28396;-87
2022/05/07 06:04:14;;;;;;;;;;;;;;;;;;5158510;27;28513;-88
2022/05/07 06:06:39;;;;;;;;;;;;;;;;;;5159065;27;28502;-89
2022/05/07 06:09:04;;;;;;;;;;;;;;;;;;5158649;27;28246;-88
2022/05/07 06:11:29;;;;;;;;;;;;;;;;;;5158621;27;28288;-86
2022/05/07 06:13:54;;;;;;;;;;;;;;;;;;5159120;27;28348;-91
2022/05/07 06:16:23;;;;;;;;;;;;;;;;;;5173646;27;28395;-89
2022/05/07 06:18:48;;;;;;;;;;;;;;;;;;5159108;27;28644;-94
2022/05/07 06:21:13;;;;;;;;;;;;;;;;;;5176654;27;28480;-94
2022/05/07 06:23:38;;;;;;;;;;;;;;;;;;5175981;27;28467;-92
2022/05/07 06:28:47;;;;;;;;;;;;;;;;;;5158609;27;28428;-92
2022/05/07 06:31:12;;;;;;;;;;;;;;;;;;5158922;27;28658;-91
2022/05/07 06:33:38;;;;;;;;;;;;;;;;;;5174925;27;27751;-93
2022/05/07 06:36:03;;;;;;;;;;;;;;;;;;5159302;27;28456;-92
2022/05/07 06:38:28;;;;;;;;;;;;;;;;;;5158877;27;29163;-91
2022/05/07 06:40:56;;;;;;;;;;;;;;;;;;5158572;27;32177;-91
2022/05/07 06:43:22;;;;;;;;;;;;;;;;;;5175153;27;28459;-93
2022/05/07 06:45:47;;;;;;;;;;;;;;;;;;5174948;27;28459;-90
2022/05/07 06:48:13;;;;;;;;;;;;;;;;;;5158585;27;28422;-86
2022/05/07 06:50:38;;;;;;;;;;;;;;;;;;5158724;27;28294;-91
2022/05/07 06:53:03;;;;;;;;;;;;;;;;;;5158313;27;28892;-93
2022/05/07 06:55:33;;;;;;;;;;;;;;;;;;5175671;27;28323;-93
2022/05/07 06:57:59;;;;;;;;;;;;;;;;;;5174999;27;30091;-92
2022/05/07 07:00:24;;;;;;;;;;;;;;;;;;5174973;27;28624;-93
2022/05/07 07:02:50;;;;;;;;;;;;;;;;;;5175137;27;27864;-92
2022/05/07 07:05:16;;;;;;;;;;;;;;;;;;5175110;27;28448;-91
2022/05/07 07:07:41;;;;;;;;;;;;;;;;;;5158117;27;29496;-92
2022/05/07 07:10:06;;;;;;;;;;;;;;;;;;5174424;27;29595;-91
2022/05/07 07:12:31;;;;;;;;;;;;;;;;;;5158242;27;27781;-91
2022/05/07 07:14:57;;;;;;;;;;;;;;;;;;5157999;27;28415;-91
2022/05/07 07:17:25;;;;;;;;;;;;;;;;;;5157579;27;29274;-90
2022/05/07 07:19:50;;;;;;;;;;;;;;;;;;5157841;27;28246;-87
2022/05/07 07:22:15;;;;;;;;;;;;;;;;;;5157904;27;28480;-92
2022/05/07 07:24:41;;;;;;;;;;;;;;;;;;5174643;27;28282;-89
2022/05/07 07:27:06;;;;;;;;;;;;;;;;;;5177756;27;29638;-92
2022/05/07 07:29:31;;;;;;;;;;;;;;;;;;5160266;27;29102;-88
2022/05/07 07:31:56;;;;;;;;;;;;;;;;;;5178721;27;28315;-91
2022/05/07 07:34:21;;;;;;;;;;;;;;;;;;5160031;27;28322;-87
2022/05/07 07:36:47;;;;;;;;;;;;;;;;;;5178457;27;28551;-89
2022/05/07 07:39:12;;;;;;;;;;;;;;;;;;5178499;27;28435;-90
2022/05/07 07:41:37;;;;;;;;;;;;;;;;;;5178458;27;28466;-88
2022/05/07 07:44:02;;;;;;;;;;;;;;;;;;5178640;27;35170;-83
2022/05/07 07:49:11;;;;;;;;;;;;;;;;;;5178036;27;28362;-83
2022/05/07 07:51:36;;;;;;;;;;;;;;;;;;5178065;27;28243;-84
2022/05/07 07:54:01;;;;;;;;;;;;;;;;;;5178515;27;28362;-84
2022/05/07 07:56:26;;;;;;;;;;;;;;;;;;5178298;27;28605;-83
2022/05/07 07:58:51;;;;;;;;;;;;;;;;;;5178310;27;28413;-82
2022/05/07 08:01:17;;;;;;;;;;;;;;;;;;5180813;27;28338;-79
2022/05/07 08:03:42;;;;;;;;;;;;;;;;;;5179036;27;28768;-80
2022/05/07 08:06:07;;;;;;;;;;;;;;;;;;5177812;27;28686;-83
2022/05/07 08:14:00;;;;;;;;;;;;;;;;;;5182311;27;28383;-84
2022/05/07 08:16:25;;;;;;;;;;;;;;;;;;5155652;27;28578;-82
2022/05/07 08:18:51;;;;;;;;;;;;;;;;;;5156780;27;28862;-82
2022/05/07 08:21:16;;;;;;;;;;;;;;;;;;5157165;27;28308;-87
2022/05/07 08:23:41;;;;;;;;;;;;;;;;;;5156982;27;28276;-82
2022/05/07 08:26:06;;;;;;;;;;;;;;;;;;5156765;27;28428;-83
2022/05/07 08:28:31;;;;;;;;;;;;;;;;;;5155967;27;28296;-81
2022/05/07 08:30:56;;;;;;;;;;;;;;;;;;5156874;27;28383;-81
2022/05/07 08:33:22;;;;;;;;;;;;;;;;;;5157289;27;28219;-81
2022/05/07 08:35:47;;;;;;;;;;;;;;;;;;5156544;27;29597;-82
2022/05/07 08:38:12;;;;;;;;;;;;;;;;;;5156649;27;28552;-81
2022/05/07 08:40:37;;;;;;;;;;;;;;;;;;5159757;27;28422;-81
2022/05/07 08:43:03;;;;;;;;;;;;;;;;;;5160570;27;28444;-81
2022/05/07 08:45:28;;;;;;;;;;;;;;;;;;5174533;27;28469;-81
2022/05/07 08:47:53;;;;;;;;;;;;;;;;;;5165174;27;28405;-80
2022/05/07 08:50:18;;;;;;;;;;;;;;;;;;5160206;27;28355;-80
2022/05/07 08:52:43;;;;;;;;;;;;;;;;;;5160132;27;35174;-80
2022/05/07 08:55:09;;;;;;;;;;;;;;;;;;5157786;27;28684;-80
2022/05/07 08:57:35;;;;;;;;;;;;;;;;;;5160118;27;28321;-79
2022/05/07 09:00:00;;;;;;;;;;;;;;;;;;5159591;27;28506;-82
2022/05/07 09:02:25;;;;;;;;;;;;;;;;;;5159885;27;28546;-82
2022/05/07 09:04:50;;;;;;;;;;;;;;;;;;5158619;27;29408;-79
2022/05/07 09:07:15;;;;;;;;;;;;;;;;;;5158897;27;28545;-79
2022/05/07 09:09:40;;;;;;;;;;;;;;;;;;5160086;27;28392;-79
2022/05/07 09:12:05;;;;;;;;;;;;;;;;;;5159860;27;28398;-80
2022/05/07 09:14:31;;;;;;;;;;;;;;;;;;5153446;27;29517;-80
2022/05/07 09:16:56;;;;;;;;;;;;;;;;;;5138762;27;28357;-81
2022/05/07 09:19:21;;;;;;;;;;;;;;;;;;5138796;27;28553;-80
2022/05/07 09:21:47;;;;;;;;;;;;;;;;;;5138930;27;28372;-82
2022/05/07 09:24:13;;;;;;;;;;;;;;;;;;5138738;27;28485;-83
2022/05/07 09:26:39;;;;;;;;;;;;;;;;;;5138600;27;28361;-80
2022/05/07 09:29:05;;;;;;;;;;;;;;;;;;5140448;27;27850;-79
2022/05/07 09:31:30;;;;;;;;;;;;;;;;;;5158824;27;28758;-82
2022/05/07 09:33:55;;;;;;;;;;;;;;;;;;5152440;27;28268;-90
2022/05/07 09:36:20;;;;;;;;;;;;;;;;;;5157553;27;28412;-88
2022/05/07 09:38:48;;;;;;;;;;;;;;;;;;5159411;27;28421;-88
2022/05/07 09:41:13;;;;;;;;;;;;;;;;;;5158555;27;28372;-89
2022/05/07 09:43:38;;;;;;;;;;;;;;;;;;5159139;27;28501;-88
2022/05/07 09:46:04;;;;;;;;;;;;;;;;;;5159367;27;28632;-82
2022/05/07 09:48:29;;;;;;;;;;;;;;;;;;5159454;27;28737;-83
2022/05/07 09:50:54;;;;;;;;;;;;;;;;;;5157804;27;28461;-83
2022/05/07 09:59:04;;;;;;;;;;;;;;;;;;5094724;28;28394;-86
2022/05/07 10:01:29;;;;;;;;;;;;;;;;;;5101038;27;28537;-83
2022/05/07 10:03:54;;;;;;;;;;;;;;;;;;5115273;27;28492;-85
2022/05/07 10:06:19;;;;;;;;;;;;;;;;;;5114777;27;28559;-84
2022/05/07 10:08:44;;;;;;;;;;;;;;;;;;5115181;27;28686;-84
2022/05/07 10:11:09;;;;;;;;;;;;;;;;;;5115342;27;28398;-84
2022/05/07 10:13:34;;;;;;;;;;;;;;;;;;5115194;27;28430;-80
2022/05/07 10:16:00;;;;;;;;;;;;;;;;;;5115225;27;28283;-82
2022/05/07 10:18:25;;;;;;;;;;;;;;;;;;5115224;27;28903;-83
2022/05/07 10:20:50;;;;;;;;;;;;;;;;;;5115236;27;28389;-83
2022/05/07 10:23:16;;;;;;;;;;;;;;;;;;5108727;27;29632;-80
2022/05/07 10:25:43;;;;;;;;;;;;;;;;;;5094590;28;28329;-79
2022/05/07 10:28:09;;;;;;;;;;;;;;;;;;5095377;28;28539;-81
2022/05/07 10:30:34;;;;;;;;;;;;;;;;;;5095748;28;28481;-82
2022/05/07 10:32:59;;;;;;;;;;;;;;;;;;5115441;27;28467;-83
2022/05/07 10:35:24;;;;;;;;;;;;;;;;;;5138492;27;28426;-82
2022/05/07 10:37:49;;;;;;;;;;;;;;;;;;5143180;27;28302;-82
2022/05/07 10:40:15;;;;;;;;;;;;;;;;;;5137542;27;28388;-83
2022/05/07 10:42:40;;;;;;;;;;;;;;;;;;5136411;27;28757;-82
2022/05/07 10:45:06;;;;;;;;;;;;;;;;;;5137373;27;28356;-82
2022/05/07 10:47:31;;;;;;;;;;;;;;;;;;5152608;27;28558;-84
2022/05/07 10:49:56;;;;;;;;;;;;;;;;;;5157010;27;28344;-84
2022/05/07 10:52:21;;;;;;;;;;;;;;;;;;5157167;27;28428;-90
2022/05/07 10:54:46;;;;;;;;;;;;;;;;;;5156730;27;28499;-89
2022/05/07 10:57:12;;;;;;;;;;;;;;;;;;5156492;27;28368;-90
2022/05/07 10:59:37;;;;;;;;;;;;;;;;;;5136213;27;28472;-85
2022/05/07 11:02:02;;;;;;;;;;;;;;;;;;5134873;27;28258;-86
2022/05/07 11:04:27;;;;;;;;;;;;;;;;;;5136350;27;28390;-86
2022/05/07 11:06:52;;;;;;;;;;;;;;;;;;5136861;27;28373;-80
2022/05/07 11:09:18;;;;;;;;;;;;;;;;;;5119225;27;28443;-84
2022/05/07 11:11:46;;;;;;;;;;;;;;;;;;5115736;27;30933;-82
2022/05/07 11:14:11;;;;;;;;;;;;;;;;;;5116269;27;28431;-84
2022/05/07 11:16:36;;;;;;;;;;;;;;;;;;5131749;27;28559;-82
2022/05/07 11:19:01;;;;;;;;;;;;;;;;;;5116514;27;28398;-82
2022/05/07 11:21:26;;;;;;;;;;;;;;;;;;5128576;27;29539;-83
2022/05/07 11:23:51;;;;;;;;;;;;;;;;;;5134985;27;28293;-83
2022/05/07 11:26:17;;;;;;;;;;;;;;;;;;5137214;27;28298;-82
2022/05/07 11:28:43;;;;;;;;;;;;;;;;;;5127624;27;28452;-83
2022/05/07 11:31:08;;;;;;;;;;;;;;;;;;5115972;27;29455;-81
2022/05/07 11:33:33;;;;;;;;;;;;;;;;;;5115852;27;28336;-84
2022/05/07 11:35:58;;;;;;;;;;;;;;;;;;5115688;27;28382;-83
2022/05/07 11:38:23;;;;;;;;;;;;;;;;;;5151306;27;27847;-83
2022/05/07 11:40:50;;;;;;;;;;;;;;;;;;5157232;27;28449;-87
2022/05/07 11:45:59;;;;;;;;;;;;;;;;;;5119070;27;27862;-83
2022/05/07 11:48:25;;;;;;;;;;;;;;;;;;5126895;27;28414;-81
2022/05/07 11:50:50;;;;;;;;;;;;;;;;;;5119075;27;28765;-83
2022/05/07 11:53:16;;;;;;;;;;;;;;;;;;5116906;27;28834;-80
2022/05/07 11:55:41;;;;;;;;;;;;;;;;;;5123105;27;28607;-84
2022/05/07 11:58:06;;;;;;;;;;;;;;;;;;5147526;27;28892;-80
2022/05/07 12:00:31;;;;;;;;;;;;;;;;;;5145569;27;28559;-80
2022/05/07 12:02:56;;;;;;;;;;;;;;;;;;5156207;27;28423;-79
2022/05/07 12:05:21;;;;;;;;;;;;;;;;;;5157038;27;28471;-80
2022/05/07 12:07:47;;;;;;;;;;;;;;;;;;5157050;27;28370;-80
2022/05/07 12:10:12;;;;;;;;;;;;;;;;;;5156757;27;29327;-81
2022/05/07 12:12:37;;;;;;;;;;;;;;;;;;5156974;27;28760;-84
2022/05/07 12:15:02;;;;;;;;;;;;;;;;;;5158921;27;28396;-81
2022/05/07 12:20:11;;;;;;;;;;;;;;;;;;5158953;27;28503;-80
2022/05/07 12:30:48;;;;;;;;;;;;;;;;;;5139070;27;28472;-81
2022/05/07 12:33:13;;;;;;;;;;;;;;;;;;5141281;27;28471;-81
2022/05/07 12:35:38;;;;;;;;;;;;;;;;;;5160005;27;28893;-81
2022/05/07 12:38:03;;;;;;;;;;;;;;;;;;5175861;27;28665;-81
2022/05/07 12:40:28;;;;;;;;;;;;;;;;;;5145496;27;29467;-80
2022/05/07 12:42:53;;;;;;;;;;;;;;;;;;5151956;27;28514;-81
2022/05/07 12:45:19;;;;;;;;;;;;;;;;;;5159784;27;28495;-82
2022/05/07 12:47:44;;;;;;;;;;;;;;;;;;5168593;27;27809;-82
2022/05/07 12:50:09;;;;;;;;;;;;;;;;;;5166290;27;28417;-81
2022/05/07 12:52:40;;;;;;;;;;;;;;;;;;5169627;27;28481;-80
2022/05/07 12:55:06;;;;;;;;;;;;;;;;;;5160198;27;28545;-88
2022/05/07 12:57:31;;;;;;;;;;;;;;;;;;5175252;27;28438;-82
2022/05/07 12:59:56;;;;;;;;;;;;;;;;;;5176851;27;28532;-81
2022/05/07 13:02:21;;;;;;;;;;;;;;;;;;5168489;27;28380;-81
2022/05/07 13:04:46;;;;;;;;;;;;;;;;;;5158552;27;28440;-83
2022/05/07 13:07:11;;;;;;;;;;;;;;;;;;5159462;27;28451;-85
2022/05/07 13:09:36;;;;;;;;;;;;;;;;;;5157579;27;29560;-85
2022/05/07 13:12:02;;;;;;;;;;;;;;;;;;5158584;27;28736;-83
2022/05/07 13:14:28;;;;;;;;;;;;;;;;;;5158843;27;28417;-84
2022/05/07 13:16:53;;;;;;;;;;;;;;;;;;5158394;27;28525;-83
2022/05/07 13:19:18;;;;;;;;;;;;;;;;;;5158492;27;28754;-92
2022/05/07 13:21:43;;;;;;;;;;;;;;;;;;5157823;27;28530;-84
2022/05/07 13:24:12;;;;;;;;;;;;;;;;;;5157518;27;28561;-84
2022/05/07 13:26:37;;;;;;;;;;;;;;;;;;5154600;27;28559;-84
2022/05/07 13:29:02;;;;;;;;;;;;;;;;;;5157902;27;28523;-86
2022/05/07 13:31:27;;;;;;;;;;;;;;;;;;5158651;27;28474;-83
2022/05/07 13:33:52;;;;;;;;;;;;;;;;;;5152578;27;28335;-84
2022/05/07 13:36:17;;;;;;;;;;;;;;;;;;5158570;27;28382;-89
2022/05/07 13:38:42;;;;;;;;;;;;;;;;;;5157971;27;28951;-85
2022/05/07 13:41:07;;;;;;;;;;;;;;;;;;5158370;27;28385;-83
2022/05/07 13:43:33;;;;;;;;;;;;;;;;;;5158557;27;28321;-85
2022/05/07 13:45:58;;;;;;;;;;;;;;;;;;5157974;27;28596;-87
2022/05/07 13:48:23;;;;;;;;;;;;;;;;;;5157650;27;29593;-88
2022/05/07 13:50:49;;;;;;;;;;;;;;;;;;5158225;27;28584;-88
2022/05/07 13:53:14;;;;;;;;;;;;;;;;;;5158787;27;28358;-88
2022/05/07 13:55:39;;;;;;;;;;;;;;;;;;5159163;27;28400;-85
2022/05/07 13:58:04;;;;;;;;;;;;;;;;;;5156043;27;29322;-87
2022/05/07 14:00:32;;;;;;;;;;;;;;;;;;5125069;27;28376;-85
2022/05/07 14:02:57;;;;;;;;;;;;;;;;;;5126501;27;28467;-85
2022/05/07 14:05:22;;;;;;;;;;;;;;;;;;5127067;27;28429;-85
2022/05/07 14:07:47;;;;;;;;;;;;;;;;;;5137731;27;28369;-86
2022/05/07 14:10:12;;;;;;;;;;;;;;;;;;5142268;27;28928;-84
2022/05/07 14:12:37;;;;;;;;;;;;;;;;;;5127108;27;28389;-90
2022/05/07 14:15:02;;;;;;;;;;;;;;;;;;5118304;27;28436;-83
2022/05/07 14:17:28;;;;;;;;;;;;;;;;;;5137289;27;28590;-86
2022/05/07 14:19:54;;;;;;;;;;;;;;;;;;5123954;27;28397;-89
2022/05/07 14:22:20;;;;;;;;;;;;;;;;;;5124541;27;28479;-83
2022/05/07 14:24:45;;;;;;;;;;;;;;;;;;5134280;27;28386;-85
2022/05/07 14:27:10;;;;;;;;;;;;;;;;;;5123887;27;28629;-84
2022/05/07 14:29:35;;;;;;;;;;;;;;;;;;5116611;27;28459;-84
2022/05/07 14:32:02;;;;;;;;;;;;;;;;;;5117328;27;28448;-82
2022/05/07 14:34:27;;;;;;;;;;;;;;;;;;5117018;27;28305;-86
2022/05/07 14:36:53;;;;;;;;;;;;;;;;;;5115598;27;28462;-83
2022/05/07 14:39:18;;;;;;;;;;;;;;;;;;5116562;27;28486;-84
2022/05/07 14:41:43;;;;;;;;;;;;;;;;;;5116516;27;28515;-84
2022/05/07 14:44:08;;;;;;;;;;;;;;;;;;5116575;27;28328;-86
2022/05/07 14:46:34;;;;;;;;;;;;;;;;;;5116326;27;28346;-87
2022/05/07 14:48:59;;;;;;;;;;;;;;;;;;5116357;27;28308;-87
2022/05/07 14:51:25;;;;;;;;;;;;;;;;;;5116861;27;28509;-88
2022/05/07 14:53:50;;;;;;;;;;;;;;;;;;5116399;27;28497;-87
2022/05/07 14:56:15;;;;;;;;;;;;;;;;;;5116356;27;28410;-87
2022/05/07 14:58:40;;;;;;;;;;;;;;;;;;5128842;27;28286;-87
2022/05/07 15:01:06;;;;;;;;;;;;;;;;;;5136814;27;28331;-88
2022/05/07 15:03:31;;;;;;;;;;;;;;;;;;5152308;27;28516;-90
2022/05/07 15:05:57;;;;;;;;;;;;;;;;;;5188616;27;28746;-89
2022/05/07 15:11:06;;;;;;;;;;;;;;;;;;5157637;27;28394;-83
2022/05/07 15:13:31;;;;;;;;;;;;;;;;;;5137732;27;28378;-82
2022/05/07 15:15:56;;;;;;;;;;;;;;;;;;5137008;27;28511;-85
2022/05/07 15:18:21;;;;;;;;;;;;;;;;;;5152810;27;28313;-84
2022/05/07 15:20:49;;;;;;;;;;;;;;;;;;5146411;27;27842;-82
2022/05/07 15:23:14;;;;;;;;;;;;;;;;;;5157459;27;28430;-82
2022/05/07 15:25:39;;;;;;;;;;;;;;;;;;5155275;27;29370;-86
2022/05/07 15:28:05;;;;;;;;;;;;;;;;;;5155743;27;27768;-82
2022/05/07 15:30:30;;;;;;;;;;;;;;;;;;5157272;27;28397;-82
2022/05/07 15:38:23;;;;;;;;;;;;;;;;;;5157273;27;28516;-82
2022/05/07 15:40:50;;;;;;;;;;;;;;;;;;5150581;27;28482;-82
2022/05/07 15:43:15;;;;;;;;;;;;;;;;;;5148581;27;30237;-86
2022/05/07 15:45:40;;;;;;;;;;;;;;;;;;5157381;27;28735;-84
2022/05/07 15:48:05;;;;;;;;;;;;;;;;;;5144561;27;28439;-85
2022/05/07 15:50:31;;;;;;;;;;;;;;;;;;5136712;27;28487;-84
2022/05/07 15:52:56;;;;;;;;;;;;;;;;;;5144536;27;28549;-81
2022/05/07 15:55:21;;;;;;;;;;;;;;;;;;5157135;27;28527;-85
2022/05/07 15:57:46;;;;;;;;;;;;;;;;;;5157281;27;28383;-82
2022/05/07 16:00:11;;;;;;;;;;;;;;;;;;5157338;27;28502;-84
2022/05/07 16:02:36;;;;;;;;;;;;;;;;;;5157408;27;28321;-83
2022/05/07 16:05:01;;;;;;;;;;;;;;;;;;5154091;27;28413;-85
2022/05/07 16:07:26;;;;;;;;;;;;;;;;;;5154140;27;28528;-82
2022/05/07 16:09:51;;;;;;;;;;;;;;;;;;5135777;27;28416;-83
2022/05/07 16:12:17;;;;;;;;;;;;;;;;;;5136426;27;28320;-82
2022/05/07 16:14:42;;;;;;;;;;;;;;;;;;5136178;27;28591;-83
2022/05/07 16:17:07;;;;;;;;;;;;;;;;;;5135924;27;28398;-84
2022/05/07 16:19:32;;;;;;;;;;;;;;;;;;5136395;27;28472;-84
2022/05/07 16:21:57;;;;;;;;;;;;;;;;;;5136295;27;28294;-82
2022/05/07 16:27:06;;;;;;;;;;;;;;;;;;5135900;27;28411;-82
2022/05/07 16:29:31;;;;;;;;;;;;;;;;;;5136359;27;28368;-82
2022/05/07 16:31:56;;;;;;;;;;;;;;;;;;5136093;27;28376;-81
2022/05/07 16:34:22;;;;;;;;;;;;;;;;;;5135829;27;28497;-82
2022/05/07 16:36:47;;;;;;;;;;;;;;;;;;5135655;27;28304;-82
2022/05/07 16:39:12;;;;;;;;;;;;;;;;;;5148742;27;28516;-83
2022/05/07 16:41:37;;;;;;;;;;;;;;;;;;5155481;27;28604;-84
2022/05/07 16:44:02;;;;;;;;;;;;;;;;;;5136244;27;28648;-85
2022/05/07 16:46:27;;;;;;;;;;;;;;;;;;5155667;27;28382;-84
2022/05/07 16:48:52;;;;;;;;;;;;;;;;;;5155180;27;28308;-84
2022/05/07 16:51:18;;;;;;;;;;;;;;;;;;5150077;27;28491;-83
2022/05/07 16:53:43;;;;;;;;;;;;;;;;;;5135907;27;28334;-83
2022/05/07 16:56:08;;;;;;;;;;;;;;;;;;5137638;27;28541;-83
2022/05/07 16:58:33;;;;;;;;;;;;;;;;;;5171452;27;28381;-85
2022/05/07 17:00:58;;;;;;;;;;;;;;;;;;5156263;27;28439;-88
2022/05/07 17:03:26;;;;;;;;;;;;;;;;;;5187843;27;30889;-87
2022/05/07 17:05:51;;;;;;;;;;;;;;;;;;5157797;27;28349;-80
2022/05/07 17:08:16;;;;;;;;;;;;;;;;;;5157236;27;28431;-84
2022/05/07 17:10:41;;;;;;;;;;;;;;;;;;5138545;27;28481;-84
2022/05/07 17:13:06;;;;;;;;;;;;;;;;;;5138553;27;29265;-82
2022/05/07 17:15:32;;;;;;;;;;;;;;;;;;5143847;27;28305;-83
2022/05/07 17:17:58;;;;;;;;;;;;;;;;;;5151305;27;28505;-84
2022/05/07 17:20:23;;;;;;;;;;;;;;;;;;5157750;27;28487;-84
2022/05/07 17:22:48;;;;;;;;;;;;;;;;;;5157915;27;28360;-86